createdAt,value
2019-05-15T00:00:35.307Z,10.56
2019-05-15T00:01:35.305Z,10.51
2019-05-15T00:02:35.311Z,10.43
2019-05-15T00:03:35.322Z,10.39
2019-05-15T00:04:35.321Z,10.44
2019-05-15T00:05:35.331Z,10.39
2019-05-15T00:06:35.338Z,10.47
2019-05-15T00:07:35.345Z,10.55
2019-05-15T00:08:42.523Z,10.53
2019-05-15T00:10:39.583Z,10.52
2019-05-15T00:11:39.369Z,10.51
2019-05-15T00:13:43.357Z,10.55
2019-05-15T00:14:43.356Z,10.39
2019-05-15T00:16:48.210Z,10.43
2019-05-15T00:17:48.487Z,10.40
2019-05-15T00:18:48.236Z,10.37
2019-05-15T00:19:48.582Z,10.42
2019-05-15T00:20:49.646Z,10.37
2019-05-15T00:21:54.570Z,10.47
2019-05-15T00:23:51.374Z,10.44
2019-05-15T00:24:51.365Z,10.37
2019-05-15T00:25:51.372Z,10.39
2019-05-15T00:26:51.381Z,10.36
2019-05-15T00:27:51.392Z,10.36
2019-05-15T00:28:51.404Z,10.36
2019-05-15T00:29:51.405Z,10.30
2019-05-15T00:30:51.417Z,10.30
2019-05-15T00:31:51.426Z,10.33
2019-05-15T00:32:51.422Z,10.34
2019-05-15T00:33:51.431Z,10.36
2019-05-15T00:34:51.439Z,10.36
2019-05-15T00:35:51.446Z,10.22
2019-05-15T00:36:51.453Z,10.30
2019-05-15T00:37:51.455Z,10.26
2019-05-15T00:38:51.465Z,10.21
2019-05-15T00:39:51.469Z,10.21
2019-05-15T00:40:51.482Z,10.21
2019-05-15T00:41:54.753Z,10.12
2019-05-15T00:42:51.497Z,10.36
2019-05-15T00:43:51.500Z,10.36
2019-05-15T00:44:51.508Z,10.22
2019-05-15T00:45:51.513Z,10.22
2019-05-15T00:46:51.522Z,10.21
2019-05-15T00:47:51.529Z,10.36
2019-05-15T00:48:51.535Z,10.26
2019-05-15T00:49:51.543Z,10.30
2019-05-15T00:50:51.548Z,10.24
2019-05-15T00:51:51.552Z,10.15
2019-05-15T00:52:51.566Z,10.24
2019-05-15T00:53:51.572Z,10.19
2019-05-15T00:54:51.575Z,10.21
2019-05-15T00:55:51.583Z,10.21
2019-05-15T00:56:51.593Z,10.09
2019-05-15T00:57:51.595Z,10.17
2019-05-15T00:58:51.607Z,10.19
2019-05-15T00:59:51.607Z,10.15
2019-05-15T01:00:51.615Z,10.14
2019-05-15T01:01:51.631Z,10.09
2019-05-15T01:02:51.640Z,10.03
2019-05-15T01:03:51.639Z,10.18
2019-05-15T01:04:51.649Z,10.10
2019-05-15T01:05:51.653Z,10.06
2019-05-15T01:06:52.756Z,10.04
2019-05-15T01:07:51.666Z,10.00
2019-05-15T01:08:51.679Z,10.00
2019-05-15T01:09:51.678Z,9.89
2019-05-15T01:10:51.696Z,10.00
2019-05-15T01:11:51.694Z,9.96
2019-05-15T01:12:51.705Z,9.88
2019-05-15T01:13:51.706Z,9.91
2019-05-15T01:14:51.714Z,9.89
2019-05-15T01:15:51.733Z,9.79
2019-05-15T01:16:51.727Z,9.83
2019-05-15T01:17:51.741Z,9.82
2019-05-15T01:18:51.744Z,9.78
2019-05-15T01:19:51.749Z,9.83
2019-05-15T01:20:51.754Z,9.71
2019-05-15T01:21:51.758Z,9.73
2019-05-15T01:22:51.764Z,9.68
2019-05-15T01:23:51.774Z,9.71
2019-05-15T01:24:51.784Z,9.67
2019-05-15T01:25:51.784Z,9.76
2019-05-15T01:26:51.799Z,9.71
2019-05-15T01:27:51.803Z,9.71
2019-05-15T01:28:51.809Z,9.67
2019-05-15T01:29:51.816Z,9.66
2019-05-15T01:30:51.827Z,9.71
2019-05-15T01:31:51.830Z,9.58
2019-05-15T01:32:51.841Z,9.61
2019-05-15T01:33:51.843Z,9.60
2019-05-15T01:34:51.851Z,9.64
2019-05-15T01:35:51.860Z,9.58
2019-05-15T01:36:51.873Z,9.61
2019-05-15T01:37:51.877Z,9.58
2019-05-15T01:38:51.873Z,9.58
2019-05-15T01:39:51.896Z,9.56
2019-05-15T01:40:51.891Z,9.58
2019-05-15T01:41:51.899Z,9.46
2019-05-15T01:42:51.910Z,9.60
2019-05-15T01:43:51.908Z,9.61
2019-05-15T01:44:51.916Z,9.46
2019-05-15T01:45:51.923Z,9.43
2019-05-15T01:46:51.932Z,9.43
2019-05-15T01:47:51.936Z,9.48
2019-05-15T01:48:51.946Z,9.38
2019-05-15T01:49:51.950Z,9.35
2019-05-15T01:50:51.956Z,9.39
2019-05-15T01:51:51.965Z,9.28
2019-05-15T01:52:51.972Z,9.30
2019-05-15T01:53:51.983Z,9.45
2019-05-15T01:54:51.987Z,9.39
2019-05-15T01:55:51.996Z,9.39
2019-05-15T01:56:52.000Z,9.49
2019-05-15T01:57:52.006Z,9.63
2019-05-15T01:58:52.012Z,9.61
2019-05-15T01:59:57.193Z,9.66
2019-05-15T02:00:52.022Z,9.68
2019-05-15T02:01:52.030Z,9.70
2019-05-15T02:02:52.045Z,9.68
2019-05-15T02:03:52.054Z,9.71
2019-05-15T02:04:52.061Z,9.71
2019-05-15T02:05:52.058Z,9.68
2019-05-15T02:06:52.067Z,9.70
2019-05-15T02:07:52.076Z,9.70
2019-05-15T02:08:52.081Z,9.70
2019-05-15T02:09:52.086Z,9.68
2019-05-15T02:10:52.101Z,9.63
2019-05-15T02:11:52.100Z,9.66
2019-05-15T02:12:52.107Z,9.63
2019-05-15T02:13:52.120Z,9.63
2019-05-15T02:14:52.125Z,9.60
2019-05-15T02:15:52.134Z,9.49
2019-05-15T02:16:52.135Z,9.57
2019-05-15T02:17:52.140Z,9.57
2019-05-15T02:18:52.151Z,9.45
2019-05-15T02:19:52.155Z,9.58
2019-05-15T02:20:52.165Z,9.66
2019-05-15T02:21:52.164Z,9.52
2019-05-15T02:22:52.173Z,9.53
2019-05-15T02:23:52.181Z,9.60
2019-05-15T02:24:52.190Z,9.49
2019-05-15T02:25:52.195Z,9.58
2019-05-15T02:26:52.211Z,9.48
2019-05-15T02:27:52.208Z,9.42
2019-05-15T02:28:52.220Z,9.46
2019-05-15T02:29:52.224Z,9.46
2019-05-15T02:30:52.231Z,9.49
2019-05-15T02:31:52.238Z,9.46
2019-05-15T02:32:52.242Z,9.38
2019-05-15T02:33:52.254Z,9.45
2019-05-15T02:34:52.259Z,9.45
2019-05-15T02:35:52.268Z,9.31
2019-05-15T02:36:52.266Z,9.25
2019-05-15T02:37:52.278Z,9.34
2019-05-15T02:38:52.282Z,9.24
2019-05-15T02:39:52.289Z,9.21
2019-05-15T02:40:52.299Z,9.24
2019-05-15T02:41:52.302Z,9.25
2019-05-15T02:42:52.306Z,9.13
2019-05-15T02:43:52.316Z,9.20
2019-05-15T02:44:52.328Z,9.10
2019-05-15T02:45:52.328Z,9.12
2019-05-15T02:46:52.337Z,9.13
2019-05-15T02:47:52.345Z,8.96
2019-05-15T02:48:52.352Z,9.05
2019-05-15T02:49:52.357Z,8.97
2019-05-15T02:50:52.364Z,8.94
2019-05-15T02:51:52.368Z,9.02
2019-05-15T02:52:52.373Z,8.88
2019-05-15T02:53:52.380Z,8.86
2019-05-15T02:54:52.384Z,8.84
2019-05-15T02:55:52.392Z,8.79
2019-05-15T02:56:52.400Z,8.79
2019-05-15T02:57:52.418Z,8.81
2019-05-15T02:58:52.423Z,8.79
2019-05-15T02:59:52.422Z,8.75
2019-05-15T03:00:53.597Z,8.78
2019-05-15T03:01:52.435Z,8.71
2019-05-15T03:02:52.448Z,8.66
2019-05-15T03:03:52.447Z,8.71
2019-05-15T03:04:52.464Z,8.65
2019-05-15T03:05:52.457Z,8.65
2019-05-15T03:06:52.533Z,8.57
2019-05-15T03:07:52.473Z,8.51
2019-05-15T03:08:52.480Z,8.40
2019-05-15T03:09:52.485Z,8.39
2019-05-15T03:10:52.492Z,8.30
2019-05-15T03:11:52.505Z,8.25
2019-05-15T03:12:52.506Z,8.12
2019-05-15T03:13:52.513Z,8.12
2019-05-15T03:14:52.520Z,8.07
2019-05-15T03:15:52.535Z,7.99
2019-05-15T03:16:52.532Z,8.00
2019-05-15T03:17:52.540Z,7.87
2019-05-15T03:18:55.760Z,7.82
2019-05-15T03:19:52.551Z,7.89
2019-05-15T03:20:52.567Z,7.82
2019-05-15T03:21:52.566Z,7.85
2019-05-15T03:22:52.571Z,7.97
2019-05-15T03:23:52.576Z,7.92
2019-05-15T03:24:52.580Z,7.87
2019-05-15T03:25:52.587Z,7.92
2019-05-15T03:26:52.596Z,7.89
2019-05-15T03:27:52.603Z,8.04
2019-05-15T03:28:52.613Z,8.02
2019-05-15T03:29:52.615Z,7.96
2019-05-15T03:31:14.600Z,8.02
2019-05-15T03:32:06.420Z,8.03
2019-05-15T03:33:01.085Z,8.04
2019-05-15T03:33:54.632Z,8.04
2019-05-15T03:34:56.127Z,8.04
2019-05-15T03:35:54.157Z,8.12
2019-05-15T03:36:53.499Z,8.14
2019-05-15T03:37:52.667Z,8.08
2019-05-15T03:38:52.676Z,8.15
2019-05-15T03:39:52.686Z,8.12
2019-05-15T03:40:52.686Z,8.11
2019-05-15T03:41:52.694Z,8.21
2019-05-15T03:42:52.699Z,8.26
2019-05-15T03:43:52.708Z,8.30
2019-05-15T03:44:52.710Z,8.33
2019-05-15T03:45:52.723Z,8.28
2019-05-15T03:46:52.721Z,8.35
2019-05-15T03:47:52.737Z,8.40
2019-05-15T03:48:52.739Z,8.47
2019-05-15T03:49:52.743Z,8.40
2019-05-15T03:50:52.748Z,8.42
2019-05-15T03:51:52.757Z,8.51
2019-05-15T03:52:52.762Z,8.54
2019-05-15T03:53:52.767Z,8.40
2019-05-15T03:54:52.774Z,8.40
2019-05-15T03:55:52.779Z,8.42
2019-05-15T03:56:52.785Z,8.54
2019-05-15T03:57:52.857Z,8.45
2019-05-15T03:58:52.810Z,8.40
2019-05-15T03:59:52.814Z,8.53
2019-05-15T04:00:52.815Z,8.51
2019-05-15T04:01:52.817Z,8.58
2019-05-15T04:02:52.832Z,8.55
2019-05-15T04:03:52.829Z,8.57
2019-05-15T04:04:56.957Z,8.60
2019-05-15T04:05:52.847Z,8.55
2019-05-15T04:06:52.859Z,8.60
2019-05-15T04:07:52.853Z,8.53
2019-05-15T04:08:52.865Z,8.66
2019-05-15T04:09:52.890Z,8.62
2019-05-15T04:10:52.880Z,8.54
2019-05-15T04:11:52.879Z,8.54
2019-05-15T04:12:52.887Z,8.60
2019-05-15T04:13:52.901Z,8.53
2019-05-15T04:14:52.912Z,8.54
2019-05-15T04:15:52.908Z,8.50
2019-05-15T04:16:52.921Z,8.57
2019-05-15T04:17:52.925Z,8.55
2019-05-15T04:18:52.931Z,8.62
2019-05-15T04:19:52.940Z,8.54
2019-05-15T04:20:52.951Z,8.63
2019-05-15T04:21:52.947Z,8.60
2019-05-15T04:22:52.954Z,8.60
2019-05-15T04:23:52.964Z,8.55
2019-05-15T04:24:52.967Z,8.66
2019-05-15T04:25:52.970Z,8.57
2019-05-15T04:26:52.981Z,8.55
2019-05-15T04:27:52.988Z,8.53
2019-05-15T04:28:52.993Z,8.65
2019-05-15T04:29:52.998Z,8.63
2019-05-15T04:30:53.010Z,8.62
2019-05-15T04:32:00.985Z,8.66
2019-05-15T04:32:53.014Z,8.69
2019-05-15T04:33:53.024Z,8.76
2019-05-15T04:34:53.027Z,8.86
2019-05-15T04:35:53.035Z,8.81
2019-05-15T04:36:53.043Z,8.84
2019-05-15T04:37:53.050Z,8.81
2019-05-15T04:38:53.057Z,8.86
2019-05-15T04:39:53.061Z,8.94
2019-05-15T04:40:53.071Z,9.05
2019-05-15T04:41:53.075Z,9.01
2019-05-15T04:42:53.088Z,8.94
2019-05-15T04:43:53.086Z,9.01
2019-05-15T04:44:53.098Z,8.97
2019-05-15T04:45:53.108Z,8.97
2019-05-15T04:46:53.116Z,8.97
2019-05-15T04:47:53.117Z,9.01
2019-05-15T04:48:53.121Z,9.06
2019-05-15T04:49:53.125Z,9.02
2019-05-15T04:50:53.137Z,8.97
2019-05-15T04:51:53.139Z,8.94
2019-05-15T04:52:53.145Z,8.96
2019-05-15T04:53:53.151Z,9.01
2019-05-15T04:54:53.159Z,8.99
2019-05-15T04:55:53.163Z,8.96
2019-05-15T04:56:53.174Z,9.01
2019-05-15T04:57:53.178Z,9.05
2019-05-15T04:58:53.187Z,9.21
2019-05-15T04:59:53.189Z,9.12
2019-05-15T05:00:53.202Z,9.18
2019-05-15T05:02:13.029Z,9.15
2019-05-15T05:02:53.219Z,9.16
2019-05-15T05:03:53.218Z,9.20
2019-05-15T05:04:53.224Z,9.18
2019-05-15T05:05:53.229Z,9.23
2019-05-15T05:06:53.237Z,9.25
2019-05-15T05:07:53.239Z,9.25
2019-05-15T05:08:53.247Z,9.38
2019-05-15T05:09:53.265Z,9.46
2019-05-15T05:10:53.265Z,9.38
2019-05-15T05:11:53.264Z,9.40
2019-05-15T05:12:53.274Z,9.40
2019-05-15T05:13:53.280Z,9.45
2019-05-15T05:14:53.291Z,9.42
2019-05-15T05:15:53.293Z,9.40
2019-05-15T05:16:53.299Z,9.48
2019-05-15T05:17:53.301Z,9.48
2019-05-15T05:18:53.315Z,9.38
2019-05-15T05:19:53.318Z,9.57
2019-05-15T05:20:53.322Z,9.48
2019-05-15T05:21:53.334Z,9.56
2019-05-15T05:22:53.341Z,9.61
2019-05-15T05:23:53.364Z,9.53
2019-05-15T05:24:53.350Z,9.57
2019-05-15T05:25:53.358Z,9.60
2019-05-15T05:26:53.371Z,9.56
2019-05-15T05:27:53.367Z,9.64
2019-05-15T05:28:53.382Z,9.68
2019-05-15T05:29:53.387Z,9.64
2019-05-15T05:30:53.391Z,9.71
2019-05-15T05:31:53.404Z,9.67
2019-05-15T05:32:53.403Z,9.66
2019-05-15T05:33:53.411Z,9.66
2019-05-15T05:34:53.417Z,9.70
2019-05-15T05:35:53.424Z,9.66
2019-05-15T05:36:53.429Z,9.58
2019-05-15T05:37:53.439Z,9.67
2019-05-15T05:38:53.444Z,9.70
2019-05-15T05:39:53.454Z,9.70
2019-05-15T05:40:53.457Z,9.70
2019-05-15T05:41:53.464Z,9.70
2019-05-15T05:42:53.472Z,9.67
2019-05-15T05:43:53.473Z,9.75
2019-05-15T05:44:53.485Z,9.71
2019-05-15T05:45:53.494Z,9.71
2019-05-15T05:46:53.499Z,9.76
2019-05-15T05:47:53.508Z,9.52
2019-05-15T05:48:53.509Z,9.66
2019-05-15T05:49:53.516Z,9.56
2019-05-15T05:50:53.520Z,9.56
2019-05-15T05:51:53.538Z,9.50
2019-05-15T05:52:53.540Z,9.48
2019-05-15T05:53:53.547Z,9.38
2019-05-15T05:54:53.550Z,9.38
2019-05-15T05:55:53.716Z,9.39
2019-05-15T05:56:53.562Z,9.39
2019-05-15T05:57:53.566Z,9.32
2019-05-15T05:58:53.575Z,9.32
2019-05-15T05:59:53.581Z,9.40
2019-05-15T06:00:53.596Z,9.34
2019-05-15T06:01:53.604Z,9.32
2019-05-15T06:02:53.607Z,9.31
2019-05-15T06:03:53.609Z,9.35
2019-05-15T06:04:53.621Z,9.30
2019-05-15T06:05:53.622Z,9.34
2019-05-15T06:07:06.113Z,9.30
2019-05-15T06:07:53.635Z,9.35
2019-05-15T06:08:53.641Z,9.48
2019-05-15T06:09:53.649Z,9.35
2019-05-15T06:10:53.652Z,9.39
2019-05-15T06:11:53.660Z,9.39
2019-05-15T06:12:53.666Z,9.38
2019-05-15T06:13:53.674Z,9.40
2019-05-15T06:14:53.681Z,9.45
2019-05-15T06:15:53.695Z,9.39
2019-05-15T06:16:53.699Z,9.48
2019-05-15T06:17:53.746Z,9.52
2019-05-15T06:18:53.714Z,9.58
2019-05-15T06:19:53.713Z,9.64
2019-05-15T06:20:53.723Z,9.66
2019-05-15T06:21:57.499Z,9.66
2019-05-15T06:22:53.732Z,9.75
2019-05-15T06:23:56.054Z,9.79
2019-05-15T06:24:53.749Z,9.81
2019-05-15T06:25:53.751Z,9.82
2019-05-15T06:26:53.757Z,9.81
2019-05-15T06:27:53.763Z,9.93
2019-05-15T06:28:53.771Z,9.86
2019-05-15T06:29:53.778Z,9.88
2019-05-15T06:30:53.789Z,10.03
2019-05-15T06:31:53.790Z,9.99
2019-05-15T06:33:07.074Z,9.89
2019-05-15T06:33:53.805Z,10.01
2019-05-15T06:34:53.812Z,9.97
2019-05-15T06:35:53.819Z,10.01
2019-05-15T06:36:53.825Z,10.04
2019-05-15T06:37:53.837Z,10.18
2019-05-15T06:38:53.840Z,10.10
2019-05-15T06:39:53.842Z,10.17
2019-05-15T06:40:53.852Z,10.04
2019-05-15T06:41:53.859Z,10.12
2019-05-15T06:42:53.861Z,10.17
2019-05-15T06:43:53.870Z,10.14
2019-05-15T06:44:53.880Z,10.19
2019-05-15T06:45:53.884Z,10.22
2019-05-15T06:46:53.888Z,10.15
2019-05-15T06:47:53.898Z,10.26
2019-05-15T06:48:53.904Z,10.28
2019-05-15T06:49:53.911Z,10.39
2019-05-15T06:50:53.919Z,10.43
2019-05-15T06:51:53.924Z,10.51
2019-05-15T06:52:53.931Z,10.42
2019-05-15T06:53:53.937Z,10.46
2019-05-15T06:54:53.944Z,10.55
2019-05-15T06:55:53.950Z,10.62
2019-05-15T06:56:53.959Z,10.60
2019-05-15T06:57:53.966Z,10.74
2019-05-15T06:58:53.975Z,10.73
2019-05-15T06:59:53.979Z,10.76
2019-05-15T07:00:53.986Z,10.77
2019-05-15T07:01:53.991Z,10.77
2019-05-15T07:02:54.005Z,10.76
2019-05-15T07:03:54.007Z,10.74
2019-05-15T07:04:54.017Z,10.74
2019-05-15T07:05:54.021Z,10.78
2019-05-15T07:06:54.025Z,10.76
2019-05-15T07:07:54.035Z,10.76
2019-05-15T07:08:54.046Z,10.70
2019-05-15T07:09:54.044Z,10.77
2019-05-15T07:10:54.054Z,10.76
2019-05-15T07:11:54.060Z,10.76
2019-05-15T07:12:54.072Z,10.65
2019-05-15T07:13:54.075Z,10.68
2019-05-15T07:14:54.087Z,10.77
2019-05-15T07:15:54.090Z,10.73
2019-05-15T07:16:54.096Z,10.74
2019-05-15T07:17:54.102Z,10.76
2019-05-15T07:18:54.109Z,10.74
2019-05-15T07:19:54.118Z,10.81
2019-05-15T07:20:54.133Z,10.81
2019-05-15T07:21:54.130Z,10.86
2019-05-15T07:22:54.132Z,10.94
2019-05-15T07:23:54.146Z,10.98
2019-05-15T07:24:54.149Z,10.94
2019-05-15T07:25:54.157Z,10.96
2019-05-15T07:26:54.166Z,10.95
2019-05-15T07:27:54.171Z,10.86
2019-05-15T07:28:54.182Z,10.99
2019-05-15T07:29:54.185Z,10.98
2019-05-15T07:30:54.192Z,11.07
2019-05-15T07:31:54.201Z,11.09
2019-05-15T07:32:54.202Z,11.07
2019-05-15T07:33:54.214Z,11.07
2019-05-15T07:34:54.222Z,11.19
2019-05-15T07:35:54.227Z,11.10
2019-05-15T07:36:54.231Z,11.19
2019-05-15T07:37:54.238Z,11.27
2019-05-15T07:38:54.255Z,11.41
2019-05-15T07:39:54.252Z,11.50
2019-05-15T07:41:00.099Z,11.41
2019-05-15T07:41:54.267Z,11.41
2019-05-15T07:42:54.277Z,11.50
2019-05-15T07:43:54.279Z,11.54
2019-05-15T07:44:54.295Z,11.57
2019-05-15T07:45:55.754Z,11.70
2019-05-15T07:46:54.309Z,11.67
2019-05-15T07:47:54.321Z,11.70
2019-05-15T07:48:54.312Z,11.77
2019-05-15T07:49:54.319Z,11.78
2019-05-15T07:50:54.333Z,11.78
2019-05-15T07:51:54.342Z,11.80
2019-05-15T07:52:54.345Z,11.85
2019-05-15T07:53:54.352Z,11.85
2019-05-15T07:54:54.363Z,11.85
2019-05-15T07:55:54.373Z,11.90
2019-05-15T07:56:54.375Z,11.89
2019-05-15T07:57:54.386Z,11.99
2019-05-15T07:58:54.387Z,12.06
2019-05-15T07:59:54.396Z,11.99
2019-05-15T08:00:54.398Z,12.02
2019-05-15T08:01:54.419Z,12.06
2019-05-15T08:02:54.416Z,12.04
2019-05-15T08:04:01.448Z,12.05
2019-05-15T08:04:54.440Z,11.97
2019-05-15T08:05:59.334Z,12.09
2019-05-15T08:06:54.447Z,11.97
2019-05-15T08:07:54.453Z,12.09
2019-05-15T08:08:54.457Z,12.08
2019-05-15T08:09:54.466Z,12.08
2019-05-15T08:10:54.475Z,12.09
2019-05-15T08:11:54.486Z,12.16
2019-05-15T08:12:54.497Z,12.20
2019-05-15T08:13:54.500Z,12.16
2019-05-15T08:14:54.508Z,12.19
2019-05-15T08:15:54.517Z,12.15
2019-05-15T08:16:54.520Z,12.33
2019-05-15T08:18:05.493Z,12.29
2019-05-15T08:18:54.537Z,12.38
2019-05-15T08:19:54.541Z,12.39
2019-05-15T08:20:54.548Z,12.39
2019-05-15T08:21:54.556Z,12.33
2019-05-15T08:22:54.564Z,12.37
2019-05-15T08:23:54.572Z,12.16
2019-05-15T08:24:54.578Z,12.11
2019-05-15T08:25:54.585Z,12.08
2019-05-15T08:26:54.599Z,12.09
2019-05-15T08:27:54.602Z,12.02
2019-05-15T08:28:54.607Z,12.02
2019-05-15T08:29:54.611Z,12.04
2019-05-15T08:30:54.634Z,12.06
2019-05-15T08:31:54.631Z,12.01
2019-05-15T08:32:54.661Z,12.09
2019-05-15T08:33:54.642Z,12.04
2019-05-15T08:34:54.646Z,12.04
2019-05-15T08:35:54.656Z,11.90
2019-05-15T08:36:54.669Z,11.99
2019-05-15T08:37:54.676Z,12.06
2019-05-15T08:38:54.688Z,12.04
2019-05-15T08:39:54.686Z,12.08
2019-05-15T08:40:54.697Z,12.11
2019-05-15T08:41:54.706Z,12.15
2019-05-15T08:42:59.501Z,12.13
2019-05-15T08:43:54.715Z,12.09
2019-05-15T08:44:54.722Z,12.04
2019-05-15T08:45:54.730Z,12.24
2019-05-15T08:46:54.752Z,12.33
2019-05-15T08:47:54.744Z,12.46
2019-05-15T08:48:54.754Z,12.54
2019-05-15T08:49:54.761Z,12.62
2019-05-15T08:50:54.777Z,12.74
2019-05-15T08:51:54.771Z,12.71
2019-05-15T08:52:54.786Z,12.84
2019-05-15T08:53:54.793Z,12.74
2019-05-15T08:54:54.799Z,12.70
2019-05-15T08:55:54.806Z,12.70
2019-05-15T08:56:54.817Z,12.75
2019-05-15T08:57:55.973Z,12.71
2019-05-15T08:58:54.827Z,12.78
2019-05-15T08:59:54.840Z,12.70
2019-05-15T09:00:54.846Z,12.82
2019-05-15T09:01:54.850Z,12.81
2019-05-15T09:02:54.866Z,12.87
2019-05-15T09:03:54.867Z,12.89
2019-05-15T09:04:54.875Z,12.97
2019-05-15T09:05:54.882Z,12.97
2019-05-15T09:06:54.911Z,12.95
2019-05-15T09:07:54.902Z,13.00
2019-05-15T09:08:54.898Z,12.99
2019-05-15T09:09:54.910Z,13.02
2019-05-15T09:10:54.919Z,13.22
2019-05-15T09:11:54.921Z,13.20
2019-05-15T09:12:54.940Z,13.27
2019-05-15T09:13:54.963Z,13.21
2019-05-15T09:14:54.947Z,13.32
2019-05-15T09:15:54.962Z,13.33
2019-05-15T09:16:54.963Z,13.36
2019-05-15T09:18:08.050Z,13.37
2019-05-15T09:18:54.985Z,13.22
2019-05-15T09:19:56.219Z,13.32
2019-05-15T09:20:54.994Z,13.40
2019-05-15T09:21:55.000Z,13.54
2019-05-15T09:22:55.010Z,13.52
2019-05-15T09:23:55.022Z,13.51
2019-05-15T09:24:55.022Z,13.71
2019-05-15T09:25:55.032Z,13.73
2019-05-15T09:26:55.041Z,13.99
2019-05-15T09:27:55.042Z,14.13
2019-05-15T09:28:55.092Z,14.31
2019-05-15T09:29:55.062Z,14.43
2019-05-15T09:30:55.070Z,14.46
2019-05-15T09:31:55.074Z,14.44
2019-05-15T09:32:55.083Z,14.34
2019-05-15T09:33:55.093Z,14.19
2019-05-15T09:34:55.618Z,14.16
2019-05-15T09:35:55.116Z,14.01
2019-05-15T09:36:55.126Z,13.96
2019-05-15T09:37:55.124Z,13.80
2019-05-15T09:38:55.133Z,13.89
2019-05-15T09:39:55.150Z,13.99
2019-05-15T09:40:55.146Z,13.96
2019-05-15T09:41:55.155Z,14.10
2019-05-15T09:42:55.178Z,14.21
2019-05-15T09:43:55.174Z,14.25
2019-05-15T09:44:55.182Z,14.28
2019-05-15T09:45:55.183Z,14.29
2019-05-15T09:46:55.194Z,14.49
2019-05-15T09:47:55.205Z,14.56
2019-05-15T09:48:55.211Z,14.67
2019-05-15T09:49:55.221Z,14.64
2019-05-15T09:50:55.230Z,14.54
2019-05-15T09:51:55.237Z,14.44
2019-05-15T09:52:55.246Z,14.53
2019-05-15T09:53:55.307Z,14.43
2019-05-15T09:54:55.261Z,14.35
2019-05-15T09:55:55.268Z,14.35
2019-05-15T09:56:55.274Z,14.27
2019-05-15T09:57:55.284Z,14.29
2019-05-15T09:58:55.291Z,14.16
2019-05-15T09:59:55.300Z,14.14
2019-05-15T10:00:55.309Z,14.13
2019-05-15T10:01:55.319Z,14.24
2019-05-15T10:02:55.326Z,14.12
2019-05-15T10:03:55.335Z,14.25
2019-05-15T10:05:06.015Z,14.31
2019-05-15T10:05:55.349Z,14.29
2019-05-15T10:06:55.357Z,14.31
2019-05-15T10:07:55.365Z,14.24
2019-05-15T10:08:55.376Z,14.21
2019-05-15T10:09:55.384Z,14.24
2019-05-15T10:10:55.390Z,14.31
2019-05-15T10:11:55.396Z,14.21
2019-05-15T10:12:55.425Z,14.29
2019-05-15T10:13:55.414Z,14.31
2019-05-15T10:14:55.424Z,14.31
2019-05-15T10:15:55.432Z,14.25
2019-05-15T10:16:58.220Z,14.31
2019-05-15T10:17:55.450Z,14.21
2019-05-15T10:18:58.027Z,14.44
2019-05-15T10:19:58.123Z,14.27
2019-05-15T10:20:57.593Z,14.16
2019-05-15T10:21:55.479Z,14.17
2019-05-15T10:22:55.490Z,14.14
2019-05-15T10:23:58.789Z,13.95
2019-05-15T10:24:55.504Z,14.07
2019-05-15T10:25:55.514Z,13.95
2019-05-15T10:26:57.925Z,13.91
2019-05-15T10:27:57.830Z,13.81
2019-05-15T10:28:58.268Z,13.94
2019-05-15T10:29:55.545Z,13.91
2019-05-15T10:30:55.555Z,13.80
2019-05-15T10:31:55.561Z,13.95
2019-05-15T10:32:55.572Z,13.99
2019-05-15T10:33:58.124Z,14.02
2019-05-15T10:34:55.586Z,14.13
2019-05-15T10:35:55.599Z,14.28
2019-05-15T10:36:55.607Z,14.27
2019-05-15T10:37:55.613Z,14.31
2019-05-15T10:38:55.658Z,14.42
2019-05-15T10:39:55.632Z,14.57
2019-05-15T10:41:08.551Z,14.54
2019-05-15T10:41:55.644Z,14.52
2019-05-15T10:42:55.656Z,14.60
2019-05-15T10:43:56.886Z,14.47
2019-05-15T10:44:55.672Z,14.34
2019-05-15T10:45:55.677Z,14.38
2019-05-15T10:46:58.351Z,14.32
2019-05-15T10:47:58.396Z,14.37
2019-05-15T10:48:58.423Z,14.25
2019-05-15T10:49:55.712Z,14.27
2019-05-15T10:51:01.382Z,14.43
2019-05-15T10:51:55.734Z,14.47
2019-05-15T10:52:55.736Z,14.52
2019-05-15T10:53:55.744Z,14.65
2019-05-15T10:54:58.126Z,14.75
2019-05-15T10:55:55.763Z,14.65
2019-05-15T10:57:00.488Z,14.86
2019-05-15T10:57:55.783Z,15.13
2019-05-15T10:58:55.789Z,15.11
2019-05-15T10:59:55.798Z,15.11
2019-05-15T11:00:55.804Z,15.12
2019-05-15T11:01:55.814Z,15.11
2019-05-15T11:02:57.916Z,15.31
2019-05-15T11:03:58.660Z,15.35
2019-05-15T11:04:57.816Z,15.38
2019-05-15T11:05:57.921Z,15.38
2019-05-15T11:06:57.998Z,15.49
2019-05-15T11:07:55.867Z,15.54
2019-05-15T11:08:58.211Z,15.74
2019-05-15T11:09:58.066Z,15.74
2019-05-15T11:10:58.378Z,15.74
2019-05-15T11:11:58.177Z,16.06
2019-05-15T11:12:58.004Z,16.23
2019-05-15T11:14:00.270Z,16.16
2019-05-15T11:14:55.929Z,16.20
2019-05-15T11:15:55.934Z,16.23
2019-05-15T11:16:55.946Z,16.15
2019-05-15T11:17:58.303Z,15.93
2019-05-15T11:18:58.356Z,15.96
2019-05-15T11:19:58.524Z,15.85
2019-05-15T11:20:55.983Z,15.84
2019-05-15T11:21:58.261Z,15.86
2019-05-15T11:22:58.958Z,15.72
2019-05-15T11:23:58.861Z,16.16
2019-05-15T11:24:56.016Z,17.48
2019-05-15T11:25:58.138Z,17.63
2019-05-15T11:26:56.425Z,17.36
2019-05-15T11:27:56.046Z,17.30
2019-05-15T11:28:58.679Z,17.36
2019-05-15T11:29:58.447Z,17.23
2019-05-15T11:30:56.076Z,17.13
2019-05-15T11:31:58.078Z,16.88
2019-05-15T11:32:58.609Z,16.70
2019-05-15T11:33:58.406Z,16.53
2019-05-15T11:34:58.263Z,16.31
2019-05-15T11:36:02.091Z,16.06
2019-05-15T11:36:59.106Z,15.94
2019-05-15T11:37:57.170Z,15.84
2019-05-15T11:38:56.154Z,15.81
2019-05-15T11:39:58.773Z,15.72
2019-05-15T11:40:56.172Z,15.61
2019-05-15T11:41:56.182Z,15.45
2019-05-15T11:42:56.192Z,15.42
2019-05-15T11:43:56.197Z,15.38
2019-05-15T11:44:58.317Z,15.43
2019-05-15T11:45:58.638Z,15.36
2019-05-15T11:46:58.473Z,15.39
2019-05-15T11:47:56.239Z,15.49
2019-05-15T11:48:58.687Z,15.41
2019-05-15T11:49:58.303Z,15.39
2019-05-15T11:50:56.264Z,15.42
2019-05-15T11:52:00.398Z,15.43
2019-05-15T11:52:58.533Z,15.48
2019-05-15T11:53:58.596Z,15.41
2019-05-15T11:54:58.800Z,15.49
2019-05-15T11:55:56.309Z,15.57
2019-05-15T11:56:59.436Z,15.75
2019-05-15T11:57:56.329Z,15.67
2019-05-15T11:58:56.343Z,15.72
2019-05-15T11:59:59.464Z,15.64
2019-05-15T12:00:57.987Z,15.68
2019-05-15T12:01:58.059Z,15.42
2019-05-15T12:02:58.487Z,15.28
2019-05-15T12:03:58.578Z,15.28
2019-05-15T12:04:58.364Z,15.15
2019-05-15T12:05:59.652Z,15.11
2019-05-15T12:06:59.621Z,15.20
2019-05-15T12:07:57.906Z,15.24
2019-05-15T12:08:58.784Z,15.23
2019-05-15T12:09:58.051Z,15.27
2019-05-15T12:10:59.191Z,15.43
2019-05-15T12:11:56.453Z,15.56
2019-05-15T12:12:56.464Z,15.79
2019-05-15T12:13:56.472Z,15.99
2019-05-15T12:14:56.482Z,16.07
2019-05-15T12:15:58.735Z,16.18
2019-05-15T12:17:06.846Z,16.12
2019-05-15T12:17:58.999Z,16.00
2019-05-15T12:18:59.075Z,16.01
2019-05-15T12:20:04.613Z,16.04
2019-05-15T12:20:58.812Z,15.89
2019-05-15T12:21:59.617Z,15.88
2019-05-15T12:22:59.239Z,15.99
2019-05-15T12:24:03.771Z,15.96
2019-05-15T12:26:00.581Z,16.03
2019-05-15T12:27:13.655Z,16.09
2019-05-15T12:28:00.586Z,15.94
2019-05-15T12:29:00.602Z,16.01
2019-05-15T12:30:00.605Z,16.04
2019-05-15T12:31:00.614Z,15.81
2019-05-15T12:32:11.689Z,15.72
2019-05-15T12:33:00.634Z,15.60
2019-05-15T12:34:00.640Z,15.43
2019-05-15T12:35:00.648Z,15.45
2019-05-15T12:36:00.659Z,15.41
2019-05-15T12:37:00.664Z,15.41
2019-05-15T12:38:00.675Z,15.36
2019-05-15T12:39:09.041Z,15.39
2019-05-15T13:00:00.875Z,18.24
2019-05-15T13:01:12.795Z,18.40
2019-05-15T13:02:00.888Z,18.83
2019-05-15T13:03:00.902Z,18.72
2019-05-15T13:04:00.905Z,18.68
2019-05-15T13:05:00.912Z,18.40
2019-05-15T13:06:00.924Z,18.31
2019-05-15T13:07:12.903Z,17.87
2019-05-15T13:08:00.955Z,17.46
2019-05-15T13:09:00.958Z,17.28
2019-05-15T13:10:00.966Z,17.06
2019-05-15T13:11:00.977Z,16.81
2019-05-15T13:12:00.989Z,16.52
2019-05-15T13:13:05.176Z,16.40
2019-05-15T13:14:01.006Z,16.27
2019-05-15T13:15:01.023Z,16.16
2019-05-15T13:16:01.032Z,16.14
2019-05-15T13:17:01.048Z,16.01
2019-05-15T13:18:01.040Z,15.96
2019-05-15T13:19:01.059Z,16.04
2019-05-15T13:20:01.066Z,16.03
2019-05-15T13:21:01.074Z,16.15
2019-05-15T13:22:01.084Z,16.20
2019-05-15T13:23:01.092Z,16.18
2019-05-15T13:24:01.105Z,16.16
2019-05-15T13:25:01.113Z,16.18
2019-05-15T13:26:01.152Z,16.31
2019-05-15T13:27:01.127Z,16.30
2019-05-15T13:28:01.135Z,16.58
2019-05-15T13:29:01.178Z,16.74